Time;durP1;ratioP1;P1;durP2;ratioP2;P2;SDS_P1;SDS_P2;PMS_P1;PMS_P2;Temp;Humidity;BMP_temperature;BMP_pressure;BME280_temperature;BME280_humidity;BME280_pressure;Samples;Min_cycle;Max_cycle;Signal;HPM_P1;HPM_P2
2023/06/11 00:00:19;;;;;;;7.13;6.33;;;;;;;21.97;77.42;98007.78;4193226;28;20702;-83
2023/06/11 00:02:24;;;;;;;7.07;5.80;;;;;;;21.92;77.05;98000.34;4194252;28;20645;-83
2023/06/11 00:04:30;;;;;;;6.20;5.30;;;;;;;21.92;76.18;98003.00;4197693;28;20636;-83
2023/06/11 00:06:33;;;;;;;6.83;5.97;;;;;;;21.90;76.77;98002.31;4188202;28;20687;-83
2023/06/11 00:08:37;;;;;;;6.00;5.40;;;;;;;21.89;76.40;98002.50;4186277;28;20692;-83
2023/06/11 00:10:41;;;;;;;6.37;5.77;;;;;;;21.88;76.42;98000.88;4192427;28;20630;-83
2023/06/11 00:12:44;;;;;;;6.67;5.83;;;;;;;21.88;75.55;98009.66;4182700;28;21278;-83
2023/06/11 00:14:48;;;;;;;5.90;5.30;;;;;;;21.86;76.21;98000.19;4200672;28;20803;-83
2023/06/11 00:16:51;;;;;;;5.37;4.87;;;;;;;21.83;77.08;98001.41;4195661;28;20725;-83
2023/06/11 00:18:55;;;;;;;6.53;5.83;;;;;;;21.79;77.18;98000.09;4197810;28;20673;-83
2023/06/11 00:20:59;;;;;;;5.43;4.93;;;;;;;21.78;76.45;98002.91;4201152;28;20651;-83
2023/06/11 00:23:02;;;;;;;6.20;5.60;;;;;;;21.75;76.05;97997.94;4200027;28;20957;-83
2023/06/11 00:25:07;;;;;;;6.43;5.83;;;;;;;21.73;76.14;97999.97;4198843;28;20697;-83
2023/06/11 00:27:12;;;;;;;7.00;6.00;;;;;;;21.71;77.50;98001.97;4198358;28;20646;-83
2023/06/11 00:29:15;;;;;;;6.27;5.67;;;;;;;21.68;77.06;97999.69;4183380;28;20627;-83
2023/06/11 00:31:18;;;;;;;7.33;6.50;;;;;;;21.63;77.48;97999.34;4200915;28;20666;-83
2023/06/11 00:33:22;;;;;;;6.57;5.87;;;;;;;21.59;77.50;98000.72;4201673;28;21193;-83
2023/06/11 00:35:26;;;;;;;7.13;5.80;;;;;;;21.54;76.87;97999.59;4202119;28;20620;-83
2023/06/11 00:37:30;;;;;;;6.43;5.83;;;;;;;21.53;76.97;98003.22;4199336;28;20639;-83
2023/06/11 00:39:34;;;;;;;6.03;5.33;;;;;;;21.51;76.85;97994.63;4188095;28;20692;-83
2023/06/11 00:41:37;;;;;;;5.70;5.03;;;;;;;21.50;76.26;98000.91;4204749;28;20727;-83
2023/06/11 00:43:41;;;;;;;7.67;5.77;;;;;;;21.46;76.05;97995.16;4184338;28;20700;-83
2023/06/11 00:45:45;;;;;;;5.50;5.00;;;;;;;21.45;75.97;97996.13;4192501;28;20632;-83
2023/06/11 00:47:48;;;;;;;7.00;6.30;;;;;;;21.43;76.20;97999.94;4202969;28;20677;-83
2023/06/11 00:49:51;;;;;;;5.33;4.83;;;;;;;21.41;76.07;98000.13;4191179;28;20658;-83
2023/06/11 00:51:55;;;;;;;5.87;5.20;;;;;;;21.39;75.90;97999.47;4205995;28;20630;-83
2023/06/11 00:53:58;;;;;;;5.67;4.87;;;;;;;21.36;75.50;98002.47;4203330;28;20708;-83
2023/06/11 00:56:01;;;;;;;5.93;5.33;;;;;;;21.33;76.38;97994.00;4187183;28;20619;-83
2023/06/11 00:58:13;;;;;;;5.77;4.60;;;;;;;21.29;77.01;98006.00;4196952;28;20627;-83
2023/06/11 01:00:18;;;;;;;5.30;4.80;;;;;;;21.23;76.42;98006.69;4201006;28;20632;-83
2023/06/11 01:02:27;;;;;;;5.33;4.83;;;;;;;21.20;77.18;98008.84;4185057;28;20633;-83
2023/06/11 01:04:32;;;;;;;5.70;4.70;;;;;;;21.19;76.75;98012.50;4200951;28;20675;-83
2023/06/11 01:06:37;;;;;;;6.00;5.17;;;;;;;21.18;76.76;98013.50;4200956;28;21178;-83
2023/06/11 01:08:42;;;;;;;5.83;5.23;;;;;;;21.12;76.13;98009.69;4205291;28;20621;-83
2023/06/11 01:10:49;;;;;;;6.03;5.10;;;;;;;21.09;76.93;98009.22;4200583;28;20660;-83
2023/06/11 01:12:53;;;;;;;5.30;4.43;;;;;;;21.06;76.44;98006.91;4199365;28;20619;-83
2023/06/11 01:14:57;;;;;;;5.23;4.60;;;;;;;21.03;75.98;98001.94;4197019;28;20667;-83
2023/06/11 01:17:06;;;;;;;4.80;4.30;;;;;;;20.97;76.70;97999.97;4205002;28;20732;-83
2023/06/11 01:19:18;;;;;;;6.77;4.73;;;;;;;20.94;76.98;98000.31;4182004;28;20642;-83
2023/06/11 01:21:25;;;;;;;5.37;4.80;;;;;;;20.91;77.78;98003.31;4187389;28;20622;-83
2023/06/11 01:23:33;;;;;;;5.37;4.87;;;;;;;20.86;77.90;98003.00;4187443;28;20639;-83
2023/06/11 01:25:46;;;;;;;5.53;4.57;;;;;;;20.82;78.05;97993.72;4216475;28;20641;-83
2023/06/11 01:28:02;;;;;;;5.10;4.60;;;;;;;20.82;77.63;98004.31;4187749;28;20653;-83
2023/06/11 01:30:08;;;;;;;5.77;5.20;;;;;;;20.79;77.90;97988.75;4205485;28;20662;-83
2023/06/11 01:32:11;;;;;;;6.37;4.77;;;;;;;20.73;77.09;97994.72;4183753;28;21071;-83
2023/06/11 01:34:16;;;;;;;5.30;4.67;;;;;;;20.71;78.88;97991.44;4191568;28;20640;-83
2023/06/11 01:36:24;;;;;;;5.70;5.10;;;;;;;20.71;78.72;97996.75;4199237;28;20650;-83
2023/06/11 01:38:34;;;;;;;5.53;4.90;;;;;;;20.68;79.34;97999.72;4196829;28;20728;-83
2023/06/11 01:40:38;;;;;;;6.00;5.40;;;;;;;20.65;78.55;98000.03;4203718;28;20658;-83
2023/06/11 01:42:43;;;;;;;6.63;5.30;;;;;;;20.64;77.63;97998.41;4186521;28;20645;-83
2023/06/11 01:44:48;;;;;;;6.40;5.63;;;;;;;20.65;79.35;97997.38;4203497;28;20639;-83
2023/06/11 01:46:52;;;;;;;6.30;5.50;;;;;;;20.67;78.21;97994.56;4202860;28;20657;-83
2023/06/11 01:48:58;;;;;;;6.37;5.40;;;;;;;20.65;78.93;97992.06;4186937;28;20632;-83
2023/06/11 01:51:02;;;;;;;5.00;4.50;;;;;;;20.63;79.28;97994.09;4202371;28;20637;-83
2023/06/11 01:53:05;;;;;;;6.50;5.50;;;;;;;20.64;78.04;98003.69;4200332;28;21167;-83
2023/06/11 01:55:09;;;;;;;8.20;5.43;;;;;;;20.65;79.08;98000.03;4206507;28;20634;-83
2023/06/11 01:57:14;;;;;;;5.40;4.90;;;;;;;20.66;78.23;98001.69;4202329;28;20646;-83
2023/06/11 01:59:20;;;;;;;6.90;5.60;;;;;;;20.63;78.09;98011.81;4182258;28;20634;-83
2023/06/11 02:01:28;;;;;;;5.87;5.27;;;;;;;20.64;78.39;98003.69;4190076;28;20653;-83
2023/06/11 02:03:32;;;;;;;5.80;5.20;;;;;;;20.63;78.46;98010.00;4202312;28;20669;-83
2023/06/11 02:05:36;;;;;;;5.93;5.33;;;;;;;20.64;79.14;98008.16;4192567;28;20633;-83
2023/06/11 02:07:39;;;;;;;5.43;4.90;;;;;;;20.65;78.37;98004.53;4198453;28;20667;-83
2023/06/11 02:09:43;;;;;;;5.50;5.00;;;;;;;20.59;79.40;98008.66;4205815;28;21009;-83
2023/06/11 02:11:47;;;;;;;6.10;5.50;;;;;;;20.58;79.30;97999.06;4183317;28;20634;-83
2023/06/11 02:13:50;;;;;;;5.87;5.27;;;;;;;20.57;78.42;98002.72;4184771;28;20640;-83
2023/06/11 02:15:55;;;;;;;6.83;5.50;;;;;;;20.53;78.48;97997.91;4199063;28;20666;-83
2023/06/11 02:17:59;;;;;;;5.40;4.73;;;;;;;20.55;78.86;98007.34;4201164;28;20750;-83
2023/06/11 02:20:06;;;;;;;6.10;5.50;;;;;;;20.55;79.92;98004.72;4196676;28;20667;-83
2023/06/11 02:22:09;;;;;;;5.63;5.03;;;;;;;20.58;78.85;98008.81;4189115;28;20638;-83
2023/06/11 02:24:13;;;;;;;5.93;5.17;;;;;;;20.59;79.74;98010.50;4200113;28;20745;-83
2023/06/11 02:26:16;;;;;;;6.30;5.70;;;;;;;20.61;79.87;98008.50;4202665;28;20995;-83
2023/06/11 02:28:20;;;;;;;5.50;4.90;;;;;;;20.58;78.88;98011.47;4199033;28;20678;-83
2023/06/11 02:30:23;;;;;;;5.93;5.10;;;;;;;20.57;78.50;98000.06;4200956;28;20730;-83
2023/06/11 02:32:27;;;;;;;6.23;5.63;;;;;;;20.58;78.33;98004.38;4186202;28;20681;-83
2023/06/11 02:34:33;;;;;;;6.50;5.87;;;;;;;20.60;79.86;98017.47;4202337;28;20634;-82
2023/06/11 02:36:40;;;;;;;6.13;5.53;;;;;;;20.58;79.63;98014.13;4181093;28;20680;-83
2023/06/11 02:38:44;;;;;;;6.00;5.37;;;;;;;20.57;79.13;98018.63;4190823;28;21257;-83
2023/06/11 02:40:47;;;;;;;5.50;5.00;;;;;;;20.54;79.83;98015.47;4197392;28;20727;-83
2023/06/11 02:42:51;;;;;;;5.47;4.93;;;;;;;20.53;79.12;98011.97;4185021;28;20640;-83
2023/06/11 02:44:54;;;;;;;5.83;4.87;;;;;;;20.52;77.88;98018.28;4200827;28;20722;-83
2023/06/11 02:46:58;;;;;;;5.43;4.83;;;;;;;20.50;79.88;98019.44;4197932;28;20740;-83
2023/06/11 02:49:02;;;;;;;6.57;4.57;;;;;;;20.48;79.41;98019.63;4195604;28;20662;-83
2023/06/11 02:51:07;;;;;;;5.37;4.83;;;;;;;20.42;79.20;98022.13;4180511;28;21154;-83
2023/06/11 02:53:11;;;;;;;7.97;5.83;;;;;;;20.36;79.76;98028.06;4196529;28;20641;-83
2023/06/11 02:55:14;;;;;;;5.30;4.47;;;;;;;20.33;78.37;98029.22;4195080;28;21639;-83
2023/06/11 02:57:17;;;;;;;7.80;5.10;;;;;;;20.32;79.59;98027.56;4186378;28;20626;-82
2023/06/11 02:59:21;;;;;;;7.43;4.63;;;;;;;20.30;79.77;98031.41;4184054;28;20647;-83
2023/06/11 03:01:25;;;;;;;5.63;4.93;;;;;;;20.29;79.42;98035.03;4199262;28;20684;-83
2023/06/11 03:03:28;;;;;;;5.57;4.57;;;;;;;20.18;79.04;98031.91;4204441;28;21120;-83
2023/06/11 03:05:33;;;;;;;5.90;5.13;;;;;;;20.15;80.44;98030.41;4191325;28;20636;-83
2023/06/11 03:07:39;;;;;;;5.93;5.33;;;;;;;20.16;78.80;98033.84;4185519;28;20719;-83
2023/06/11 03:09:44;;;;;;;5.80;4.87;;;;;;;20.13;80.25;98035.03;4197176;28;20640;-83
2023/06/11 03:11:48;;;;;;;6.33;5.30;;;;;;;20.12;78.89;98037.84;4186100;28;20641;-83
2023/06/11 03:13:52;;;;;;;6.37;5.50;;;;;;;20.11;80.16;98037.00;4183699;28;20629;-83
2023/06/11 03:15:56;;;;;;;6.27;5.40;;;;;;;20.11;79.16;98037.00;4181832;28;20633;-83
2023/06/11 03:18:01;;;;;;;6.37;5.00;;;;;;;20.10;80.71;98040.66;4187867;28;20630;-83
2023/06/11 03:20:08;;;;;;;6.07;5.47;;;;;;;20.11;80.66;98044.94;4183475;28;20636;-83
2023/06/11 03:22:12;;;;;;;6.53;5.83;;;;;;;20.10;79.30;98042.47;4194190;28;20766;-83
2023/06/11 03:24:17;;;;;;;6.07;5.37;;;;;;;20.11;79.92;98042.28;4198377;28;20630;-83
2023/06/11 03:26:21;;;;;;;6.73;5.90;;;;;;;20.10;80.27;98039.81;4186657;28;20641;-83
2023/06/11 03:28:26;;;;;;;5.80;5.20;;;;;;;20.08;81.00;98044.47;4182345;28;21184;-83
2023/06/11 03:30:30;;;;;;;6.30;5.40;;;;;;;20.05;80.17;98042.13;4200973;28;21207;-83
2023/06/11 03:32:34;;;;;;;6.27;4.80;;;;;;;20.05;81.89;98050.09;4207533;28;20744;-83
2023/06/11 03:34:38;;;;;;;6.70;5.50;;;;;;;20.06;80.39;98044.63;4204914;28;20736;-83
2023/06/11 03:36:42;;;;;;;6.23;5.60;;;;;;;20.06;80.97;98046.44;4199367;28;20632;-83
2023/06/11 03:38:50;;;;;;;6.13;5.40;;;;;;;20.06;79.99;98044.63;4179198;28;21542;-83
2023/06/11 03:40:57;;;;;;;6.33;5.67;;;;;;;20.08;80.25;98052.41;4185863;28;20638;-83
2023/06/11 03:43:05;;;;;;;6.37;5.20;;;;;;;20.07;80.34;98048.09;4196058;28;20627;-83
2023/06/11 03:45:11;;;;;;;6.47;5.50;;;;;;;20.09;80.95;98054.06;4188270;28;20739;-83
2023/06/11 03:47:15;;;;;;;6.90;6.10;;;;;;;20.10;81.54;98053.91;4197897;28;20986;-83
2023/06/11 03:49:19;;;;;;;7.33;6.10;;;;;;;20.12;80.62;98056.41;4179950;28;21059;-83
2023/06/11 03:51:23;;;;;;;7.13;6.20;;;;;;;20.14;80.53;98057.88;4184021;28;20765;-83
2023/06/11 03:53:26;;;;;;;6.73;6.03;;;;;;;20.18;81.15;98063.69;4200690;28;21126;-83
2023/06/11 03:55:30;;;;;;;6.23;5.63;;;;;;;20.20;81.96;98067.00;4203199;28;20639;-83
2023/06/11 03:57:35;;;;;;;7.13;6.50;;;;;;;20.24;82.20;98068.31;4201265;28;20707;-83
2023/06/11 03:59:38;;;;;;;6.60;6.00;;;;;;;20.26;82.12;98072.44;4204677;28;20746;-83
2023/06/11 04:01:42;;;;;;;6.37;5.77;;;;;;;20.20;82.36;98061.69;4207162;28;20637;-83
2023/06/11 04:03:45;;;;;;;7.57;6.50;;;;;;;20.21;82.55;98071.31;4204217;28;20672;-83
2023/06/11 04:05:48;;;;;;;6.60;5.93;;;;;;;20.23;80.98;98070.13;4184431;28;21198;-83
2023/06/11 04:07:52;;;;;;;7.10;6.40;;;;;;;20.22;81.15;98065.84;4205844;28;21238;-83
2023/06/11 04:09:55;;;;;;;6.90;6.20;;;;;;;20.26;81.15;98074.28;4189860;28;21298;-83
2023/06/11 04:11:58;;;;;;;7.00;6.27;;;;;;;20.30;81.53;98076.44;4191352;28;20642;-83
2023/06/11 04:14:04;;;;;;;7.23;6.30;;;;;;;20.32;81.87;98069.97;4206829;28;20628;-83
2023/06/11 04:16:07;;;;;;;6.80;6.10;;;;;;;20.36;81.67;98068.66;4200089;28;20664;-83
2023/06/11 04:18:11;;;;;;;13.73;6.50;;;;;;;20.41;82.59;98070.81;4193752;28;20706;-83
2023/06/11 04:20:15;;;;;;;8.00;7.20;;;;;;;20.41;81.12;98065.50;4193410;28;20640;-83
2023/06/11 04:22:18;;;;;;;7.70;6.90;;;;;;;20.37;81.04;98062.38;4200465;28;20631;-83
2023/06/11 04:24:21;;;;;;;7.67;6.87;;;;;;;20.41;80.79;98073.44;4203669;28;20636;-83
2023/06/11 04:26:25;;;;;;;8.73;6.17;;;;;;;20.46;82.64;98074.63;4183739;28;21201;-83
2023/06/11 04:28:29;;;;;;;8.40;7.10;;;;;;;20.49;82.34;98082.25;4194368;28;20627;-83
2023/06/11 04:30:36;;;;;;;8.00;7.20;;;;;;;20.51;81.59;98082.91;4204560;28;20652;-83
2023/06/11 04:32:41;;;;;;;7.00;6.30;;;;;;;20.55;81.96;98080.72;4199416;28;20638;-84
2023/06/11 04:34:48;;;;;;;7.57;6.73;;;;;;;20.56;82.39;98088.50;4204935;28;20649;-83
2023/06/11 04:36:54;;;;;;;10.23;7.17;;;;;;;20.61;82.81;98088.88;4189831;28;20728;-83
2023/06/11 04:39:04;;;;;;;7.77;6.97;;;;;;;20.66;82.03;98088.34;4201659;28;20632;-83
2023/06/11 04:41:11;;;;;;;7.57;6.77;;;;;;;20.70;81.00;98093.16;4189163;28;21034;-83
2023/06/11 04:43:17;;;;;;;7.53;6.73;;;;;;;20.73;81.24;98092.84;4201898;28;20684;-83
2023/06/11 04:45:20;;;;;;;7.53;6.30;;;;;;;20.76;81.56;98089.84;4200269;28;20682;-83
2023/06/11 04:47:29;;;;;;;6.90;6.20;;;;;;;20.79;81.39;98096.66;4196350;28;21089;-83
2023/06/11 04:49:33;;;;;;;7.23;6.33;;;;;;;20.82;80.81;98089.19;4208433;28;20659;-83
2023/06/11 04:51:40;;;;;;;9.33;6.43;;;;;;;20.86;81.13;98094.00;4205673;28;20638;-83
2023/06/11 04:53:45;;;;;;;8.17;7.37;;;;;;;20.88;81.70;98099.13;4196113;28;20628;-84
2023/06/11 04:55:51;;;;;;;8.20;6.87;;;;;;;20.89;80.33;98093.66;4185110;28;21194;-83
2023/06/11 04:57:55;;;;;;;7.83;7.03;;;;;;;20.91;80.08;98097.00;4204119;28;20629;-84
2023/06/11 05:00:01;;;;;;;8.63;7.47;;;;;;;20.92;80.12;98098.63;4205902;28;20641;-83
2023/06/11 05:02:06;;;;;;;7.43;6.67;;;;;;;20.96;80.92;98101.78;4190622;28;21102;-83
2023/06/11 05:04:11;;;;;;;9.00;7.53;;;;;;;21.02;80.66;98098.47;4196386;28;22059;-83
2023/06/11 05:06:14;;;;;;;7.30;6.60;;;;;;;21.02;80.78;98099.28;4181986;28;20673;-83
2023/06/11 05:08:24;;;;;;;8.40;7.20;;;;;;;21.05;80.45;98092.78;4189352;28;20637;-83
2023/06/11 05:10:29;;;;;;;8.43;6.90;;;;;;;21.05;80.81;98098.09;4168209;28;20656;-83
2023/06/11 05:12:33;;;;;;;9.23;7.63;;;;;;;21.06;81.19;98089.97;4188694;28;20629;-84
2023/06/11 05:14:36;;;;;;;8.10;7.10;;;;;;;21.07;79.98;98098.78;4190439;28;20638;-84
2023/06/11 05:16:40;;;;;;;8.23;7.20;;;;;;;21.08;79.95;98093.28;4189072;28;20637;-83
2023/06/11 05:18:45;;;;;;;7.63;6.83;;;;;;;21.14;81.44;98091.78;4194476;28;20659;-83
2023/06/11 05:20:50;;;;;;;8.40;7.60;;;;;;;21.22;79.67;98095.25;4197224;28;20622;-83
2023/06/11 05:22:58;;;;;;;7.80;7.07;;;;;;;21.33;79.91;98097.53;4192656;28;20636;-83
2023/06/11 05:25:08;;;;;;;7.07;6.37;;;;;;;21.38;79.31;98095.22;4198371;28;20641;-83
2023/06/11 05:27:18;;;;;;;7.83;7.03;;;;;;;21.49;79.92;98105.47;4180693;28;20692;-83
2023/06/11 05:29:24;;;;;;;7.43;6.30;;;;;;;21.56;79.14;98106.44;4182656;28;20632;-83
2023/06/11 05:31:35;;;;;;;7.43;6.60;;;;;;;21.66;78.81;98105.22;4213968;28;20654;-83
2023/06/11 05:33:42;;;;;;;7.67;6.83;;;;;;;21.83;79.09;98122.75;4199469;28;20659;-85
2023/06/11 05:35:47;;;;;;;7.80;7.00;;;;;;;22.05;79.06;98124.63;4202656;28;21552;-84
2023/06/11 05:37:51;;;;;;;7.50;6.80;;;;;;;22.24;77.29;98123.22;4184402;28;20650;-85
2023/06/11 05:39:55;;;;;;;7.73;7.00;;;;;;;22.45;77.14;98128.72;4195918;28;20655;-84
2023/06/11 05:41:59;;;;;;;9.17;6.70;;;;;;;22.71;75.30;98132.66;4191366;28;20626;-85
2023/06/11 05:44:04;;;;;;;7.30;6.37;;;;;;;22.98;75.74;98131.31;4174114;28;20712;-85
2023/06/11 05:46:11;;;;;;;7.13;6.43;;;;;;;23.22;74.38;98132.72;4178264;28;20632;-84
2023/06/11 05:48:15;;;;;;;7.73;6.97;;;;;;;23.54;74.07;98131.53;4180770;28;20659;-84
2023/06/11 05:50:19;;;;;;;6.83;6.00;;;;;;;23.82;73.53;98133.41;4199489;28;20689;-84
2023/06/11 05:52:23;;;;;;;7.53;6.73;;;;;;;24.08;72.22;98137.22;4191657;28;20641;-85
2023/06/11 05:54:29;;;;;;;6.90;6.20;;;;;;;24.34;71.82;98137.53;4188456;28;20633;-84
2023/06/11 05:56:32;;;;;;;6.33;5.50;;;;;;;24.58;72.66;98143.31;4191966;28;20689;-84
2023/06/11 05:58:36;;;;;;;7.00;6.30;;;;;;;24.81;70.77;98147.47;4192072;28;20638;-85
2023/06/11 06:00:42;;;;;;;7.00;6.30;;;;;;;25.07;70.49;98153.06;4173528;28;20692;-84
2023/06/11 06:02:46;;;;;;;7.33;6.37;;;;;;;25.27;69.34;98144.19;4195139;28;20719;-84
2023/06/11 06:04:56;;;;;;;7.50;6.73;;;;;;;25.47;68.65;98145.16;4190059;28;20635;-85
2023/06/11 06:07:00;;;;;;;6.80;6.20;;;;;;;25.69;67.77;98154.78;4191818;28;20678;-84
2023/06/11 06:09:04;;;;;;;6.60;6.00;;;;;;;25.79;66.69;98158.75;4197835;28;20650;-84
2023/06/11 06:11:10;;;;;;;7.40;6.23;;;;;;;25.95;67.41;98149.56;4175945;28;21240;-84
2023/06/11 06:13:14;;;;;;;6.63;5.93;;;;;;;26.11;66.13;98150.84;4194689;28;20631;-84
2023/06/11 06:15:17;;;;;;;7.10;6.50;;;;;;;26.25;65.02;98154.41;4168560;28;21350;-85
2023/06/11 06:17:20;;;;;;;7.60;6.60;;;;;;;26.28;64.53;98157.56;4188121;28;20640;-84
2023/06/11 06:19:24;;;;;;;7.30;6.60;;;;;;;26.43;64.81;98154.72;4179983;28;20636;-84
2023/06/11 06:21:28;;;;;;;6.83;6.23;;;;;;;26.47;64.46;98156.78;4169450;28;20663;-84
2023/06/11 06:23:35;;;;;;;6.33;5.73;;;;;;;26.64;64.36;98153.53;4199235;28;20666;-84
2023/06/11 06:25:43;;;;;;;6.90;6.30;;;;;;;26.87;63.70;98153.19;4176784;28;20738;-84
2023/06/11 06:27:49;;;;;;;6.43;5.83;;;;;;;26.95;63.42;98166.38;4193422;28;21214;-84
2023/06/11 06:29:52;;;;;;;6.73;6.03;;;;;;;27.04;63.63;98156.06;4181913;28;20646;-84
2023/06/11 06:31:55;;;;;;;7.20;6.50;;;;;;;27.09;63.21;98164.34;4173692;28;21678;-84
2023/06/11 06:33:59;;;;;;;6.23;5.63;;;;;;;27.22;62.58;98167.00;4195261;28;20648;-85
2023/06/11 06:36:06;;;;;;;6.37;5.77;;;;;;;27.28;62.51;98163.50;4185218;28;20626;-84
2023/06/11 06:38:14;;;;;;;7.33;6.70;;;;;;;27.43;62.51;98161.44;4201278;28;20624;-84
2023/06/11 06:40:20;;;;;;;6.40;5.80;;;;;;;27.61;62.04;98159.78;4180979;28;20674;-85
2023/06/11 06:42:30;;;;;;;6.67;6.07;;;;;;;27.66;61.34;98161.84;4185959;28;20738;-84
2023/06/11 06:44:40;;;;;;;6.13;5.53;;;;;;;27.53;61.66;98162.69;4173035;28;20994;-84
2023/06/11 06:46:44;;;;;;;7.10;6.40;;;;;;;27.68;61.46;98157.06;4198214;28;21082;-84
2023/06/11 06:48:47;;;;;;;7.13;6.33;;;;;;;27.92;60.22;98153.72;4191385;28;21242;-84
2023/06/11 06:50:51;;;;;;;6.83;6.13;;;;;;;28.12;59.87;98158.84;4188981;28;20682;-85
2023/06/11 06:52:54;;;;;;;7.40;6.00;;;;;;;28.28;60.21;98160.22;4198010;28;20749;-87
2023/06/11 06:54:58;;;;;;;7.10;6.13;;;;;;;28.35;58.58;98164.53;4195832;28;20638;-82
2023/06/11 06:57:01;;;;;;;6.73;6.13;;;;;;;28.52;58.60;98160.31;4202219;28;20647;-84
2023/06/11 06:59:06;;;;;;;7.00;6.10;;;;;;;28.61;58.90;98164.38;4178991;28;21062;-83
2023/06/11 07:01:12;;;;;;;6.70;6.10;;;;;;;28.78;59.47;98168.25;4197006;28;21062;-83
2023/06/11 07:03:16;;;;;;;5.70;5.20;;;;;;;28.94;59.61;98179.28;4201068;28;20662;-83
2023/06/11 07:05:19;;;;;;;6.73;6.10;;;;;;;28.92;57.17;98165.25;4201413;28;20629;-83
2023/06/11 07:07:24;;;;;;;8.80;6.00;;;;;;;28.88;56.64;98165.91;4199676;28;20701;-84
2023/06/11 07:09:28;;;;;;;7.07;6.37;;;;;;;28.82;57.14;98173.00;4201272;28;20635;-83
2023/06/11 07:11:31;;;;;;;6.63;5.93;;;;;;;28.68;57.45;98159.84;4200735;28;20694;-84
2023/06/11 07:13:35;;;;;;;5.70;5.20;;;;;;;28.82;56.98;98170.31;4186982;28;20685;-83
2023/06/11 07:15:40;;;;;;;6.43;5.80;;;;;;;28.76;56.35;98162.25;4187037;28;20659;-84
2023/06/11 07:17:45;;;;;;;7.53;6.00;;;;;;;28.71;55.73;98165.59;4184793;28;20639;-83
2023/06/11 07:19:50;;;;;;;6.47;5.87;;;;;;;28.78;56.80;98160.19;4205745;28;20637;-84
2023/06/11 07:21:53;;;;;;;6.43;5.83;;;;;;;28.80;56.65;98158.94;4185880;28;20628;-84
2023/06/11 07:23:57;;;;;;;6.73;6.00;;;;;;;28.76;56.49;98157.72;4183076;28;21253;-84
2023/06/11 07:26:02;;;;;;;6.63;6.03;;;;;;;28.70;57.40;98147.84;4179726;28;21377;-84
2023/06/11 07:28:06;;;;;;;6.57;5.97;;;;;;;28.83;56.09;98160.38;4210711;28;20628;-84
2023/06/11 07:30:12;;;;;;;6.20;5.60;;;;;;;28.77;56.54;98163.91;4185046;28;20682;-83
2023/06/11 07:32:16;;;;;;;6.80;6.20;;;;;;;28.90;56.31;98153.06;4187260;28;20663;-84
2023/06/11 07:34:22;;;;;;;6.80;6.20;;;;;;;28.86;56.34;98158.06;4202433;28;21226;-84
2023/06/11 07:36:26;;;;;;;6.63;5.93;;;;;;;28.91;56.25;98150.16;4198738;28;21131;-84
2023/06/11 07:38:32;;;;;;;6.57;5.77;;;;;;;29.00;56.50;98149.69;4199445;28;21198;-83
2023/06/11 07:40:35;;;;;;;6.30;5.70;;;;;;;29.04;56.27;98156.25;4187936;28;20625;-85
2023/06/11 07:42:39;;;;;;;6.67;6.07;;;;;;;29.01;55.51;98156.69;4201472;28;20753;-83
2023/06/11 07:44:42;;;;;;;6.00;5.50;;;;;;;29.00;55.36;98151.53;4205859;28;20633;-83
2023/06/11 07:46:45;;;;;;;5.80;5.30;;;;;;;28.90;54.47;98159.28;4185786;28;20650;-83
2023/06/11 07:48:49;;;;;;;6.10;5.53;;;;;;;28.94;54.89;98167.72;4186411;28;20730;-82
2023/06/11 07:50:54;;;;;;;6.83;6.13;;;;;;;28.87;54.84;98158.88;4204194;28;20655;-82
2023/06/11 07:53:00;;;;;;;6.50;5.90;;;;;;;28.79;55.37;98151.94;4198765;28;20985;-81
2023/06/11 07:55:05;;;;;;;7.80;5.33;;;;;;;28.91;54.92;98160.09;4200511;28;21469;-81
2023/06/11 07:57:08;;;;;;;6.30;5.80;;;;;;;29.20;55.59;98155.75;4179076;28;20633;-85
2023/06/11 07:59:13;;;;;;;6.13;5.63;;;;;;;29.16;54.03;98162.59;4195009;28;20645;-84
2023/06/11 08:01:16;;;;;;;5.40;4.90;;;;;;;29.07;54.00;98149.63;4183196;28;20754;-84
2023/06/11 08:03:20;;;;;;;6.00;5.40;;;;;;;29.26;54.75;98154.91;4196597;28;20618;-84
2023/06/11 08:05:23;;;;;;;6.63;5.97;;;;;;;29.52;54.19;98150.09;4188473;28;21011;-84
2023/06/11 08:07:28;;;;;;;5.97;5.37;;;;;;;29.48;53.14;98135.47;4194092;28;21039;-84
2023/06/11 08:09:33;;;;;;;5.50;5.00;;;;;;;29.44;52.67;98154.94;4210131;28;21103;-84
2023/06/11 08:11:37;;;;;;;6.03;5.53;;;;;;;29.32;53.46;98145.94;4188583;28;21023;-84
2023/06/11 08:13:41;;;;;;;6.20;5.70;;;;;;;29.40;53.69;98139.47;4189379;28;21149;-84
2023/06/11 08:15:44;;;;;;;6.50;5.90;;;;;;;29.44;52.59;98141.50;4182455;28;20624;-84
2023/06/11 08:17:48;;;;;;;6.53;5.93;;;;;;;29.53;52.69;98150.94;4191151;28;20651;-84
2023/06/11 08:19:51;;;;;;;5.70;5.20;;;;;;;29.64;51.40;98142.94;4199072;28;20642;-84
2023/06/11 08:21:55;;;;;;;5.30;4.80;;;;;;;29.55;51.27;98149.66;4204175;28;20623;-83
2023/06/11 08:24:00;;;;;;;8.00;5.80;;;;;;;29.47;51.94;98138.38;4202311;28;20635;-84
2023/06/11 08:26:03;;;;;;;6.43;5.83;;;;;;;29.48;50.82;98135.47;4190302;28;21243;-84
2023/06/11 08:28:07;;;;;;;6.70;6.10;;;;;;;29.54;51.27;98129.19;4182417;28;20713;-85
2023/06/11 08:30:11;;;;;;;6.27;5.73;;;;;;;29.27;50.83;98134.19;4177882;28;20631;-82
2023/06/11 08:32:14;;;;;;;6.03;5.43;;;;;;;29.37;51.49;98135.34;4195430;28;20693;-82
2023/06/11 08:34:18;;;;;;;6.30;5.57;;;;;;;29.35;50.47;98132.06;4192389;28;20627;-82
2023/06/11 08:36:21;;;;;;;7.93;5.77;;;;;;;29.04;48.36;98133.94;4183398;28;20635;-81
2023/06/11 08:38:27;;;;;;;6.70;6.00;;;;;;;28.91;48.86;98127.84;4200860;28;21075;-82
2023/06/11 08:40:34;;;;;;;5.70;5.10;;;;;;;29.02;49.94;98131.47;4196760;28;20981;-82
2023/06/11 08:42:37;;;;;;;8.03;5.80;;;;;;;29.06;48.94;98135.38;4200541;28;20639;-82
2023/06/11 08:44:40;;;;;;;5.93;5.33;;;;;;;29.04;49.82;98128.56;4202531;28;21240;-83
2023/06/11 08:46:45;;;;;;;5.37;4.63;;;;;;;29.05;49.47;98125.66;4189125;28;20647;-83
2023/06/11 08:48:54;;;;;;;7.13;5.47;;;;;;;29.22;47.38;98124.06;4202941;28;20642;-84
2023/06/11 08:50:58;;;;;;;6.00;5.40;;;;;;;29.16;47.86;98127.63;4196567;28;20624;-84
2023/06/11 08:53:04;;;;;;;5.53;5.03;;;;;;;29.11;48.14;98135.53;4170037;28;20655;-84
2023/06/11 08:55:08;;;;;;;5.90;5.30;;;;;;;29.14;48.01;98123.53;4191024;28;21190;-84
2023/06/11 08:57:13;;;;;;;6.43;5.37;;;;;;;29.11;47.81;98124.78;4199487;28;20636;-82
2023/06/11 08:59:18;;;;;;;5.57;5.07;;;;;;;28.84;47.85;98145.91;4175372;28;20695;-84
2023/06/11 09:01:22;;;;;;;6.67;5.97;;;;;;;28.79;48.43;98121.53;4200746;28;20650;-84
2023/06/11 09:03:26;;;;;;;7.07;5.63;;;;;;;28.71;49.39;98117.25;4189982;28;21090;-84
2023/06/11 09:05:29;;;;;;;5.70;4.57;;;;;;;28.78;48.00;98126.09;4200401;28;20725;-84
2023/06/11 09:07:33;;;;;;;6.53;5.40;;;;;;;28.72;47.92;98116.22;4200392;28;20638;-83
2023/06/11 09:09:39;;;;;;;6.33;5.07;;;;;;;28.89;47.98;98108.44;4179702;28;20636;-84
2023/06/11 09:11:42;;;;;;;5.43;4.80;;;;;;;28.98;47.77;98108.75;4200338;28;21435;-83
2023/06/11 09:13:47;;;;;;;5.17;4.57;;;;;;;28.92;47.84;98113.38;4195497;28;20684;-86
2023/06/11 09:15:52;;;;;;;5.50;5.00;;;;;;;28.97;47.98;98111.66;4197176;28;20648;-88
2023/06/11 09:17:56;;;;;;;5.90;5.30;;;;;;;29.02;47.33;98115.34;4181305;28;20681;-85
2023/06/11 09:20:04;;;;;;;5.47;4.63;;;;;;;29.20;48.79;98111.91;4186388;28;20630;-87
2023/06/11 09:22:08;;;;;;;6.07;5.03;;;;;;;29.25;48.09;98112.91;4183794;28;20636;-87
2023/06/11 09:24:11;;;;;;;5.60;5.10;;;;;;;29.40;48.08;98112.59;4184706;28;21809;-88
2023/06/11 09:26:17;;;;;;;5.53;5.03;;;;;;;29.40;46.32;98113.38;4201408;28;21278;-88
2023/06/11 09:28:20;;;;;;;5.27;4.77;;;;;;;29.44;46.69;98103.84;4178662;28;20659;-88
2023/06/11 09:30:25;;;;;;;5.63;4.97;;;;;;;29.51;47.77;98109.97;4197789;28;20643;-89
2023/06/11 09:32:29;;;;;;;5.90;5.30;;;;;;;29.60;47.62;98122.91;4186673;28;20643;-89
2023/06/11 09:34:36;;;;;;;5.27;4.77;;;;;;;29.64;46.98;98113.34;4188924;28;21567;-87
2023/06/11 09:36:40;;;;;;;5.60;5.00;;;;;;;29.62;46.92;98107.38;4195859;28;20666;-90
2023/06/11 09:38:45;;;;;;;6.47;5.70;;;;;;;29.35;46.46;98110.56;4190834;28;20981;-84
2023/06/11 09:40:49;;;;;;;6.97;5.10;;;;;;;29.41;46.85;98098.91;4199163;28;20685;-84
2023/06/11 09:42:53;;;;;;;5.77;5.20;;;;;;;29.39;46.64;98100.97;4197002;28;20969;-84
2023/06/11 09:44:58;;;;;;;5.20;4.70;;;;;;;29.53;46.81;98099.81;4195688;28;20634;-85
2023/06/11 09:47:05;;;;;;;4.93;4.53;;;;;;;29.53;47.01;98107.91;4204593;28;20707;-85